sensor_id;sensor_type;location;lat;lon;timestamp;temperature;humidity
909;DHT22;441;51.192;6.788;2023-05-07T00:00:36;22.30;91.20
909;DHT22;441;51.192;6.788;2023-05-07T00:03:03;22.30;91.10
909;DHT22;441;51.192;6.788;2023-05-07T00:05:30;22.30;91.00
909;DHT22;441;51.192;6.788;2023-05-07T00:07:57;22.30;91.10
909;DHT22;441;51.192;6.788;2023-05-07T00:10:26;22.30;91.10
909;DHT22;441;51.192;6.788;2023-05-07T00:12:53;22.30;91.20
909;DHT22;441;51.192;6.788;2023-05-07T00:15:20;22.30;91.10
909;DHT22;441;51.192;6.788;2023-05-07T00:17:46;22.30;91.20
909;DHT22;441;51.192;6.788;2023-05-07T00:20:13;22.30;91.10
909;DHT22;441;51.192;6.788;2023-05-07T00:22:41;22.20;91.20
909;DHT22;441;51.192;6.788;2023-05-07T00:25:08;22.30;91.10
909;DHT22;441;51.192;6.788;2023-05-07T00:27:37;22.30;91.20
909;DHT22;441;51.192;6.788;2023-05-07T00:30:05;22.30;91.20
909;DHT22;441;51.192;6.788;2023-05-07T00:32:32;22.30;91.00
909;DHT22;441;51.192;6.788;2023-05-07T00:34:59;22.30;91.10
909;DHT22;441;51.192;6.788;2023-05-07T00:37:26;22.20;91.10
909;DHT22;441;51.192;6.788;2023-05-07T00:39:53;22.20;91.10
909;DHT22;441;51.192;6.788;2023-05-07T00:42:19;22.20;91.10
909;DHT22;441;51.192;6.788;2023-05-07T00:44:48;22.20;91.30
909;DHT22;441;51.192;6.788;2023-05-07T00:47:16;22.20;91.20
909;DHT22;441;51.192;6.788;2023-05-07T00:49:44;22.20;91.20
909;DHT22;441;51.192;6.788;2023-05-07T00:52:13;22.20;91.30
909;DHT22;441;51.192;6.788;2023-05-07T00:54:41;22.20;91.00
909;DHT22;441;51.192;6.788;2023-05-07T00:57:09;22.20;91.00
909;DHT22;441;51.192;6.788;2023-05-07T00:59:36;22.20;91.10
909;DHT22;441;51.192;6.788;2023-05-07T01:02:05;22.20;91.10
909;DHT22;441;51.192;6.788;2023-05-07T01:04:31;22.20;91.10
909;DHT22;441;51.192;6.788;2023-05-07T01:06:59;22.20;91.10
909;DHT22;441;51.192;6.788;2023-05-07T01:09:28;22.20;91.00
909;DHT22;441;51.192;6.788;2023-05-07T01:11:55;22.20;90.90
909;DHT22;441;51.192;6.788;2023-05-07T01:14:23;22.20;90.90
909;DHT22;441;51.192;6.788;2023-05-07T01:16:51;22.20;91.00
909;DHT22;441;51.192;6.788;2023-05-07T01:19:20;22.20;91.00
909;DHT22;441;51.192;6.788;2023-05-07T01:21:48;22.20;90.90
909;DHT22;441;51.192;6.788;2023-05-07T01:24:16;22.20;90.90
909;DHT22;441;51.192;6.788;2023-05-07T01:26:44;22.20;90.90
909;DHT22;441;51.192;6.788;2023-05-07T01:29:11;22.10;90.90
909;DHT22;441;51.192;6.788;2023-05-07T01:31:39;22.10;90.80
909;DHT22;441;51.192;6.788;2023-05-07T01:34:08;22.20;90.90
909;DHT22;441;51.192;6.788;2023-05-07T01:36:38;22.20;90.80
909;DHT22;441;51.192;6.788;2023-05-07T01:39:05;22.20;90.90
909;DHT22;441;51.192;6.788;2023-05-07T01:41:34;22.10;91.00
909;DHT22;441;51.192;6.788;2023-05-07T01:44:03;22.10;90.80
909;DHT22;441;51.192;6.788;2023-05-07T01:46:31;22.10;90.80
909;DHT22;441;51.192;6.788;2023-05-07T01:48:59;22.10;90.80
909;DHT22;441;51.192;6.788;2023-05-07T01:51:26;22.10;90.90
909;DHT22;441;51.192;6.788;2023-05-07T01:53:53;22.10;90.90
909;DHT22;441;51.192;6.788;2023-05-07T01:56:20;22.10;90.90
909;DHT22;441;51.192;6.788;2023-05-07T01:58:49;22.10;90.80
909;DHT22;441;51.192;6.788;2023-05-07T02:01:17;22.10;90.70
909;DHT22;441;51.192;6.788;2023-05-07T02:03:44;22.10;90.70
909;DHT22;441;51.192;6.788;2023-05-07T02:06:11;22.10;90.70
909;DHT22;441;51.192;6.788;2023-05-07T02:08:38;22.10;90.80
909;DHT22;441;51.192;6.788;2023-05-07T02:11:05;22.10;90.80
909;DHT22;441;51.192;6.788;2023-05-07T02:13:32;22.10;90.60
909;DHT22;441;51.192;6.788;2023-05-07T02:16:01;22.10;90.80
909;DHT22;441;51.192;6.788;2023-05-07T02:18:28;22.10;90.70
909;DHT22;441;51.192;6.788;2023-05-07T02:20:55;22.10;90.80
909;DHT22;441;51.192;6.788;2023-05-07T02:23:21;22.10;90.70
909;DHT22;441;51.192;6.788;2023-05-07T02:25:48;22.10;90.70
909;DHT22;441;51.192;6.788;2023-05-07T02:28:15;22.10;90.80
909;DHT22;441;51.192;6.788;2023-05-07T02:30:42;22.10;90.70
909;DHT22;441;51.192;6.788;2023-05-07T02:33:10;22.10;90.80
909;DHT22;441;51.192;6.788;2023-05-07T02:35:38;22.10;90.90
909;DHT22;441;51.192;6.788;2023-05-07T02:38:04;22.00;90.80
909;DHT22;441;51.192;6.788;2023-05-07T02:40:31;22.00;90.70
909;DHT22;441;51.192;6.788;2023-05-07T02:43:00;22.00;90.70
909;DHT22;441;51.192;6.788;2023-05-07T02:45:27;22.00;90.60
909;DHT22;441;51.192;6.788;2023-05-07T02:47:54;22.00;90.70
909;DHT22;441;51.192;6.788;2023-05-07T02:50:22;22.00;90.70
909;DHT22;441;51.192;6.788;2023-05-07T02:52:49;22.00;90.60
909;DHT22;441;51.192;6.788;2023-05-07T02:55:16;22.00;90.50
909;DHT22;441;51.192;6.788;2023-05-07T02:57:42;22.00;90.50
909;DHT22;441;51.192;6.788;2023-05-07T03:00:14;22.00;90.50
909;DHT22;441;51.192;6.788;2023-05-07T03:02:41;22.00;90.50
909;DHT22;441;51.192;6.788;2023-05-07T03:05:08;22.00;90.40
909;DHT22;441;51.192;6.788;2023-05-07T03:07:36;22.00;90.40
909;DHT22;441;51.192;6.788;2023-05-07T03:10:04;22.00;90.40
909;DHT22;441;51.192;6.788;2023-05-07T03:12:31;22.00;90.30
909;DHT22;441;51.192;6.788;2023-05-07T03:14:58;22.00;90.40
909;DHT22;441;51.192;6.788;2023-05-07T03:17:25;22.00;90.30
909;DHT22;441;51.192;6.788;2023-05-07T03:19:52;22.00;90.20
909;DHT22;441;51.192;6.788;2023-05-07T03:22:19;22.00;90.20
909;DHT22;441;51.192;6.788;2023-05-07T03:24:47;22.00;90.20
909;DHT22;441;51.192;6.788;2023-05-07T03:27:14;22.00;90.20
909;DHT22;441;51.192;6.788;2023-05-07T03:29:41;22.00;90.20
909;DHT22;441;51.192;6.788;2023-05-07T03:32:08;22.00;90.70
909;DHT22;441;51.192;6.788;2023-05-07T03:34:34;21.90;90.20
909;DHT22;441;51.192;6.788;2023-05-07T03:37:01;22.00;90.20
909;DHT22;441;51.192;6.788;2023-05-07T03:39:28;21.90;90.30
909;DHT22;441;51.192;6.788;2023-05-07T03:41:57;22.00;90.10
909;DHT22;441;51.192;6.788;2023-05-07T03:44:24;21.90;90.10
909;DHT22;441;51.192;6.788;2023-05-07T03:46:51;21.90;90.10
909;DHT22;441;51.192;6.788;2023-05-07T03:49:18;21.90;90.00
909;DHT22;441;51.192;6.788;2023-05-07T03:51:44;21.90;90.10
909;DHT22;441;51.192;6.788;2023-05-07T03:54:11;21.90;90.00
909;DHT22;441;51.192;6.788;2023-05-07T03:56:38;21.90;90.10
909;DHT22;441;51.192;6.788;2023-05-07T03:59:07;21.90;90.10
909;DHT22;441;51.192;6.788;2023-05-07T04:01:34;21.90;90.00
909;DHT22;441;51.192;6.788;2023-05-07T04:04:00;21.90;90.00
909;DHT22;441;51.192;6.788;2023-05-07T04:06:28;21.90;89.90
909;DHT22;441;51.192;6.788;2023-05-07T04:08:55;21.90;89.80
909;DHT22;441;51.192;6.788;2023-05-07T04:11:22;21.90;89.80
909;DHT22;441;51.192;6.788;2023-05-07T04:13:50;21.90;89.70
909;DHT22;441;51.192;6.788;2023-05-07T04:16:18;21.90;89.70
909;DHT22;441;51.192;6.788;2023-05-07T04:18:45;21.90;89.70
909;DHT22;441;51.192;6.788;2023-05-07T04:21:15;21.90;89.60
909;DHT22;441;51.192;6.788;2023-05-07T04:23:42;21.90;89.70
909;DHT22;441;51.192;6.788;2023-05-07T04:26:09;21.90;89.40
909;DHT22;441;51.192;6.788;2023-05-07T04:28:36;21.90;89.40
909;DHT22;441;51.192;6.788;2023-05-07T04:31:03;21.90;89.30
909;DHT22;441;51.192;6.788;2023-05-07T04:33:32;21.90;89.40
909;DHT22;441;51.192;6.788;2023-05-07T04:36:00;21.90;89.50
909;DHT22;441;51.192;6.788;2023-05-07T04:38:29;21.90;89.40
909;DHT22;441;51.192;6.788;2023-05-07T04:40:57;21.90;89.30
909;DHT22;441;51.192;6.788;2023-05-07T04:43:23;21.90;89.40
909;DHT22;441;51.192;6.788;2023-05-07T04:45:51;21.90;89.40
909;DHT22;441;51.192;6.788;2023-05-07T04:48:18;21.80;89.30
909;DHT22;441;51.192;6.788;2023-05-07T04:50:48;21.90;89.20
909;DHT22;441;51.192;6.788;2023-05-07T04:53:16;21.80;89.40
909;DHT22;441;51.192;6.788;2023-05-07T04:55:43;21.80;89.30
909;DHT22;441;51.192;6.788;2023-05-07T04:58:10;21.80;89.20
909;DHT22;441;51.192;6.788;2023-05-07T05:00:37;21.80;89.30
909;DHT22;441;51.192;6.788;2023-05-07T05:03:04;21.80;89.30
909;DHT22;441;51.192;6.788;2023-05-07T05:05:31;21.80;89.10
909;DHT22;441;51.192;6.788;2023-05-07T05:08:00;21.80;89.10
909;DHT22;441;51.192;6.788;2023-05-07T05:10:26;21.80;89.00
909;DHT22;441;51.192;6.788;2023-05-07T05:12:53;21.80;88.90
909;DHT22;441;51.192;6.788;2023-05-07T05:15:20;21.80;89.00
909;DHT22;441;51.192;6.788;2023-05-07T05:17:47;21.80;88.80
909;DHT22;441;51.192;6.788;2023-05-07T05:20:14;21.80;88.60
909;DHT22;441;51.192;6.788;2023-05-07T05:22:41;21.80;88.80
909;DHT22;441;51.192;6.788;2023-05-07T05:25:10;21.80;88.70
909;DHT22;441;51.192;6.788;2023-05-07T05:27:36;21.80;88.70
909;DHT22;441;51.192;6.788;2023-05-07T05:30:04;21.80;88.50
909;DHT22;441;51.192;6.788;2023-05-07T05:32:31;21.80;88.40
909;DHT22;441;51.192;6.788;2023-05-07T05:34:58;21.80;88.60
909;DHT22;441;51.192;6.788;2023-05-07T05:37:25;21.80;88.60
909;DHT22;441;51.192;6.788;2023-05-07T05:39:52;21.80;88.40
909;DHT22;441;51.192;6.788;2023-05-07T05:42:21;21.80;88.80
909;DHT22;441;51.192;6.788;2023-05-07T05:44:48;21.80;88.70
909;DHT22;441;51.192;6.788;2023-05-07T05:47:15;21.80;88.60
909;DHT22;441;51.192;6.788;2023-05-07T05:49:42;21.80;88.60
909;DHT22;441;51.192;6.788;2023-05-07T05:52:12;21.80;88.50
909;DHT22;441;51.192;6.788;2023-05-07T05:54:40;21.80;88.70
909;DHT22;441;51.192;6.788;2023-05-07T05:57:07;21.80;88.50
909;DHT22;441;51.192;6.788;2023-05-07T05:59:35;21.80;88.60
909;DHT22;441;51.192;6.788;2023-05-07T06:02:02;21.80;88.50
909;DHT22;441;51.192;6.788;2023-05-07T06:04:29;21.80;88.60
909;DHT22;441;51.192;6.788;2023-05-07T06:06:56;21.80;88.60
909;DHT22;441;51.192;6.788;2023-05-07T06:09:23;21.80;88.50
909;DHT22;441;51.192;6.788;2023-05-07T06:11:50;21.80;88.60
909;DHT22;441;51.192;6.788;2023-05-07T06:14:17;21.80;88.70
909;DHT22;441;51.192;6.788;2023-05-07T06:16:45;21.80;88.80
909;DHT22;441;51.192;6.788;2023-05-07T06:19:12;21.80;88.70
909;DHT22;441;51.192;6.788;2023-05-07T06:21:39;21.80;88.60
909;DHT22;441;51.192;6.788;2023-05-07T06:24:07;21.80;88.90
909;DHT22;441;51.192;6.788;2023-05-07T06:26:34;21.80;88.70
909;DHT22;441;51.192;6.788;2023-05-07T06:29:00;21.80;88.80
909;DHT22;441;51.192;6.788;2023-05-07T06:31:30;21.80;88.70
909;DHT22;441;51.192;6.788;2023-05-07T06:33:59;21.80;88.60
909;DHT22;441;51.192;6.788;2023-05-07T06:36:27;21.80;88.60
909;DHT22;441;51.192;6.788;2023-05-07T06:38:54;21.80;88.40
909;DHT22;441;51.192;6.788;2023-05-07T06:41:21;21.80;88.50
909;DHT22;441;51.192;6.788;2023-05-07T06:43:48;21.80;88.40
909;DHT22;441;51.192;6.788;2023-05-07T06:57:33;21.80;87.70
909;DHT22;441;51.192;6.788;2023-05-07T07:00:00;22.20;86.60
909;DHT22;441;51.192;6.788;2023-05-07T07:02:27;22.20;85.90
909;DHT22;441;51.192;6.788;2023-05-07T07:04:53;22.20;86.20
909;DHT22;441;51.192;6.788;2023-05-07T07:07:20;22.20;86.50
909;DHT22;441;51.192;6.788;2023-05-07T07:09:47;22.10;86.90
909;DHT22;441;51.192;6.788;2023-05-07T07:12:14;22.10;87.40
909;DHT22;441;51.192;6.788;2023-05-07T07:14:42;22.00;87.80
909;DHT22;441;51.192;6.788;2023-05-07T07:17:09;22.00;88.10
909;DHT22;441;51.192;6.788;2023-05-07T07:19:36;22.00;88.40
909;DHT22;441;51.192;6.788;2023-05-07T07:22:04;22.00;88.30
909;DHT22;441;51.192;6.788;2023-05-07T07:24:31;22.00;88.20
909;DHT22;441;51.192;6.788;2023-05-07T07:26:58;22.00;88.10
909;DHT22;441;51.192;6.788;2023-05-07T07:29:25;22.00;88.10
909;DHT22;441;51.192;6.788;2023-05-07T07:31:53;22.00;88.30
909;DHT22;441;51.192;6.788;2023-05-07T07:34:20;21.90;88.40
909;DHT22;441;51.192;6.788;2023-05-07T07:36:47;21.90;88.60
909;DHT22;441;51.192;6.788;2023-05-07T07:39:14;21.90;88.60
909;DHT22;441;51.192;6.788;2023-05-07T07:41:41;21.90;88.60
909;DHT22;441;51.192;6.788;2023-05-07T07:44:08;21.90;88.80
909;DHT22;441;51.192;6.788;2023-05-07T07:46:38;21.90;88.70
909;DHT22;441;51.192;6.788;2023-05-07T07:49:06;21.90;88.80
909;DHT22;441;51.192;6.788;2023-05-07T07:51:33;21.90;88.90
909;DHT22;441;51.192;6.788;2023-05-07T07:54:00;21.90;89.10
909;DHT22;441;51.192;6.788;2023-05-07T07:56:28;21.90;88.70
909;DHT22;441;51.192;6.788;2023-05-07T07:58:55;22.00;89.10
909;DHT22;441;51.192;6.788;2023-05-07T08:01:22;22.00;90.10
909;DHT22;441;51.192;6.788;2023-05-07T08:03:48;22.10;90.00
909;DHT22;441;51.192;6.788;2023-05-07T08:06:17;22.20;89.20
909;DHT22;441;51.192;6.788;2023-05-07T08:08:44;22.20;88.30
909;DHT22;441;51.192;6.788;2023-05-07T08:11:11;22.30;87.90
909;DHT22;441;51.192;6.788;2023-05-07T08:13:38;22.40;87.40
909;DHT22;441;51.192;6.788;2023-05-07T08:16:05;22.40;87.00
909;DHT22;441;51.192;6.788;2023-05-07T08:18:32;22.50;86.60
909;DHT22;441;51.192;6.788;2023-05-07T08:20:59;22.50;86.20
909;DHT22;441;51.192;6.788;2023-05-07T08:23:27;22.60;86.00
909;DHT22;441;51.192;6.788;2023-05-07T08:25:54;22.60;85.50
909;DHT22;441;51.192;6.788;2023-05-07T08:28:21;22.60;85.10
909;DHT22;441;51.192;6.788;2023-05-07T08:30:50;22.70;85.00
909;DHT22;441;51.192;6.788;2023-05-07T08:33:17;22.70;85.60
909;DHT22;441;51.192;6.788;2023-05-07T08:35:44;22.70;85.60
909;DHT22;441;51.192;6.788;2023-05-07T08:38:11;22.80;85.00
909;DHT22;441;51.192;6.788;2023-05-07T08:40:39;22.80;84.90
909;DHT22;441;51.192;6.788;2023-05-07T08:43:07;22.80;84.90
909;DHT22;441;51.192;6.788;2023-05-07T08:45:35;22.80;85.00
909;DHT22;441;51.192;6.788;2023-05-07T08:48:03;22.80;85.10
909;DHT22;441;51.192;6.788;2023-05-07T08:50:31;22.90;85.00
909;DHT22;441;51.192;6.788;2023-05-07T08:52:58;22.90;84.60
909;DHT22;441;51.192;6.788;2023-05-07T08:55:25;22.90;84.20
909;DHT22;441;51.192;6.788;2023-05-07T08:57:53;23.00;84.70
909;DHT22;441;51.192;6.788;2023-05-07T09:00:20;23.00;84.40
909;DHT22;441;51.192;6.788;2023-05-07T09:02:48;23.00;84.40
909;DHT22;441;51.192;6.788;2023-05-07T09:05:15;23.00;84.20
909;DHT22;441;51.192;6.788;2023-05-07T09:07:42;23.10;83.70
909;DHT22;441;51.192;6.788;2023-05-07T09:10:09;23.00;83.20
909;DHT22;441;51.192;6.788;2023-05-07T09:12:36;23.10;84.60
909;DHT22;441;51.192;6.788;2023-05-07T09:15:07;23.10;83.80
909;DHT22;441;51.192;6.788;2023-05-07T09:17:34;23.10;83.70
909;DHT22;441;51.192;6.788;2023-05-07T09:20:05;23.20;83.80
909;DHT22;441;51.192;6.788;2023-05-07T09:22:33;23.20;83.30
909;DHT22;441;51.192;6.788;2023-05-07T09:25:00;23.20;83.30
909;DHT22;441;51.192;6.788;2023-05-07T09:27:27;23.20;83.60
909;DHT22;441;51.192;6.788;2023-05-07T09:29:53;23.20;84.00
909;DHT22;441;51.192;6.788;2023-05-07T09:32:22;23.30;84.40
909;DHT22;441;51.192;6.788;2023-05-07T09:34:49;23.30;84.20
909;DHT22;441;51.192;6.788;2023-05-07T09:37:16;23.30;84.20
909;DHT22;441;51.192;6.788;2023-05-07T09:39:44;23.40;84.40
909;DHT22;441;51.192;6.788;2023-05-07T09:42:11;23.40;85.40
909;DHT22;441;51.192;6.788;2023-05-07T09:44:40;23.40;85.30
909;DHT22;441;51.192;6.788;2023-05-07T09:47:08;23.30;84.70
909;DHT22;441;51.192;6.788;2023-05-07T09:49:38;23.40;84.40
909;DHT22;441;51.192;6.788;2023-05-07T09:52:08;23.40;84.60
909;DHT22;441;51.192;6.788;2023-05-07T09:54:36;23.40;84.80
909;DHT22;441;51.192;6.788;2023-05-07T09:57:05;23.40;84.50
909;DHT22;441;51.192;6.788;2023-05-07T09:59:33;23.40;84.70
909;DHT22;441;51.192;6.788;2023-05-07T10:02:01;23.40;84.20
909;DHT22;441;51.192;6.788;2023-05-07T10:04:31;23.40;84.20
909;DHT22;441;51.192;6.788;2023-05-07T10:06:59;23.40;84.40
909;DHT22;441;51.192;6.788;2023-05-07T10:09:27;23.40;84.90
909;DHT22;441;51.192;6.788;2023-05-07T10:11:56;23.30;85.00
909;DHT22;441;51.192;6.788;2023-05-07T10:14:23;23.30;85.10
909;DHT22;441;51.192;6.788;2023-05-07T10:16:51;23.30;85.00
909;DHT22;441;51.192;6.788;2023-05-07T10:19:19;23.30;84.80
909;DHT22;441;51.192;6.788;2023-05-07T10:21:54;23.40;84.80
909;DHT22;441;51.192;6.788;2023-05-07T10:24:26;23.40;84.60
909;DHT22;441;51.192;6.788;2023-05-07T10:26:54;23.40;84.50
909;DHT22;441;51.192;6.788;2023-05-07T10:29:30;23.50;84.20
909;DHT22;441;51.192;6.788;2023-05-07T10:32:17;23.50;83.20
909;DHT22;441;51.192;6.788;2023-05-07T10:34:49;23.50;82.90
909;DHT22;441;51.192;6.788;2023-05-07T10:37:17;23.50;83.00
909;DHT22;441;51.192;6.788;2023-05-07T10:39:46;23.50;83.00
909;DHT22;441;51.192;6.788;2023-05-07T10:42:14;23.50;82.70
909;DHT22;441;51.192;6.788;2023-05-07T10:44:41;23.50;82.40
909;DHT22;441;51.192;6.788;2023-05-07T10:47:10;23.50;82.30
909;DHT22;441;51.192;6.788;2023-05-07T10:52:30;23.60;82.50
909;DHT22;441;51.192;6.788;2023-05-07T10:55:22;23.70;81.60
909;DHT22;441;51.192;6.788;2023-05-07T10:57:50;23.70;81.10
909;DHT22;441;51.192;6.788;2023-05-07T11:00:42;23.80;81.00
909;DHT22;441;51.192;6.788;2023-05-07T11:03:10;23.80;80.90
909;DHT22;441;51.192;6.788;2023-05-07T11:05:38;23.80;80.80
909;DHT22;441;51.192;6.788;2023-05-07T11:08:06;23.80;80.60
909;DHT22;441;51.192;6.788;2023-05-07T11:10:51;23.80;80.40
909;DHT22;441;51.192;6.788;2023-05-07T11:13:42;23.90;80.60
909;DHT22;441;51.192;6.788;2023-05-07T11:16:17;23.90;80.30
909;DHT22;441;51.192;6.788;2023-05-07T11:18:48;23.90;80.40
909;DHT22;441;51.192;6.788;2023-05-07T11:21:32;23.80;80.70
909;DHT22;441;51.192;6.788;2023-05-07T11:23:59;23.80;81.00
909;DHT22;441;51.192;6.788;2023-05-07T11:26:30;23.80;81.00
909;DHT22;441;51.192;6.788;2023-05-07T11:28:57;23.70;80.90
909;DHT22;441;51.192;6.788;2023-05-07T11:31:26;23.70;81.10
909;DHT22;441;51.192;6.788;2023-05-07T11:33:55;23.70;81.00
909;DHT22;441;51.192;6.788;2023-05-07T11:36:23;23.70;81.00
909;DHT22;441;51.192;6.788;2023-05-07T11:38:50;23.70;80.70
909;DHT22;441;51.192;6.788;2023-05-07T11:41:17;23.80;81.80
909;DHT22;441;51.192;6.788;2023-05-07T11:43:58;23.80;80.90
909;DHT22;441;51.192;6.788;2023-05-07T11:46:26;23.80;80.80
909;DHT22;441;51.192;6.788;2023-05-07T11:48:53;23.80;81.00
909;DHT22;441;51.192;6.788;2023-05-07T11:51:20;23.80;81.70
909;DHT22;441;51.192;6.788;2023-05-07T11:53:48;23.80;80.90
909;DHT22;441;51.192;6.788;2023-05-07T11:56:17;23.80;81.00
909;DHT22;441;51.192;6.788;2023-05-07T11:58:46;23.80;80.90
909;DHT22;441;51.192;6.788;2023-05-07T12:01:15;23.90;80.30
909;DHT22;441;51.192;6.788;2023-05-07T12:03:43;23.90;79.90
909;DHT22;441;51.192;6.788;2023-05-07T12:06:11;23.90;79.20
909;DHT22;441;51.192;6.788;2023-05-07T12:08:39;23.90;79.30
909;DHT22;441;51.192;6.788;2023-05-07T12:11:14;24.00;79.50
909;DHT22;441;51.192;6.788;2023-05-07T12:13:43;24.10;79.40
909;DHT22;441;51.192;6.788;2023-05-07T12:16:10;24.10;79.20
909;DHT22;441;51.192;6.788;2023-05-07T12:18:40;24.10;79.80
909;DHT22;441;51.192;6.788;2023-05-07T12:21:07;24.10;80.00
909;DHT22;441;51.192;6.788;2023-05-07T12:23:36;24.20;80.10
909;DHT22;441;51.192;6.788;2023-05-07T12:26:04;24.20;79.80
909;DHT22;441;51.192;6.788;2023-05-07T12:28:35;24.20;79.00
909;DHT22;441;51.192;6.788;2023-05-07T12:31:03;24.30;78.70
909;DHT22;441;51.192;6.788;2023-05-07T12:33:31;24.30;79.30
909;DHT22;441;51.192;6.788;2023-05-07T12:36:04;24.30;78.90
909;DHT22;441;51.192;6.788;2023-05-07T12:38:36;24.30;78.60
909;DHT22;441;51.192;6.788;2023-05-07T12:41:03;24.40;78.30
909;DHT22;441;51.192;6.788;2023-05-07T12:43:30;24.40;78.50
909;DHT22;441;51.192;6.788;2023-05-07T12:46:00;24.40;78.30
909;DHT22;441;51.192;6.788;2023-05-07T12:48:27;24.50;78.50
909;DHT22;441;51.192;6.788;2023-05-07T12:50:55;24.50;78.70
909;DHT22;441;51.192;6.788;2023-05-07T12:53:25;24.40;78.80
909;DHT22;441;51.192;6.788;2023-05-07T12:55:53;24.50;78.70
909;DHT22;441;51.192;6.788;2023-05-07T12:58:26;24.50;78.60
909;DHT22;441;51.192;6.788;2023-05-07T13:00:53;24.60;77.80
909;DHT22;441;51.192;6.788;2023-05-07T13:03:26;24.60;77.30
909;DHT22;441;51.192;6.788;2023-05-07T13:05:55;24.60;77.10
909;DHT22;441;51.192;6.788;2023-05-07T13:08:28;24.60;78.10
909;DHT22;441;51.192;6.788;2023-05-07T13:10:59;24.50;77.60
909;DHT22;441;51.192;6.788;2023-05-07T13:13:29;24.50;77.50
909;DHT22;441;51.192;6.788;2023-05-07T13:15:56;24.40;77.60
909;DHT22;441;51.192;6.788;2023-05-07T13:18:24;24.40;77.50
909;DHT22;441;51.192;6.788;2023-05-07T13:20:51;24.40;78.10
909;DHT22;441;51.192;6.788;2023-05-07T13:23:18;24.40;77.60
909;DHT22;441;51.192;6.788;2023-05-07T13:25:47;24.40;77.90
909;DHT22;441;51.192;6.788;2023-05-07T13:28:14;24.40;77.50
909;DHT22;441;51.192;6.788;2023-05-07T13:30:41;24.40;77.10
909;DHT22;441;51.192;6.788;2023-05-07T13:33:08;24.50;76.50
909;DHT22;441;51.192;6.788;2023-05-07T13:35:35;24.50;76.20
909;DHT22;441;51.192;6.788;2023-05-07T13:38:03;24.50;76.70
909;DHT22;441;51.192;6.788;2023-05-07T13:40:30;24.50;76.70
909;DHT22;441;51.192;6.788;2023-05-07T13:42:59;24.50;76.80
909;DHT22;441;51.192;6.788;2023-05-07T13:45:27;24.50;76.30
909;DHT22;441;51.192;6.788;2023-05-07T13:47:55;24.40;75.80
909;DHT22;441;51.192;6.788;2023-05-07T13:50:22;24.30;76.40
909;DHT22;441;51.192;6.788;2023-05-07T13:52:49;24.30;77.00
909;DHT22;441;51.192;6.788;2023-05-07T13:55:17;24.20;77.30
909;DHT22;441;51.192;6.788;2023-05-07T13:57:45;24.20;78.30
909;DHT22;441;51.192;6.788;2023-05-07T14:00:14;24.10;79.50
909;DHT22;441;51.192;6.788;2023-05-07T14:02:41;24.10;83.00
909;DHT22;441;51.192;6.788;2023-05-07T14:05:09;24.00;86.80
909;DHT22;441;51.192;6.788;2023-05-07T14:07:36;23.90;90.80
909;DHT22;441;51.192;6.788;2023-05-07T14:10:03;23.80;92.00
909;DHT22;441;51.192;6.788;2023-05-07T14:12:31;23.70;93.30
909;DHT22;441;51.192;6.788;2023-05-07T14:14:58;23.70;93.90
909;DHT22;441;51.192;6.788;2023-05-07T14:17:27;23.70;94.20
909;DHT22;441;51.192;6.788;2023-05-07T14:19:54;23.70;94.50
909;DHT22;441;51.192;6.788;2023-05-07T14:22:22;23.60;94.40
909;DHT22;441;51.192;6.788;2023-05-07T14:24:49;23.50;94.60
909;DHT22;441;51.192;6.788;2023-05-07T14:27:16;23.40;95.50
909;DHT22;441;51.192;6.788;2023-05-07T14:29:43;23.40;95.60
909;DHT22;441;51.192;6.788;2023-05-07T14:32:11;23.40;96.00
909;DHT22;441;51.192;6.788;2023-05-07T14:34:39;23.30;96.40
909;DHT22;441;51.192;6.788;2023-05-07T14:37:06;23.30;97.40
909;DHT22;441;51.192;6.788;2023-05-07T14:39:33;23.20;97.70
909;DHT22;441;51.192;6.788;2023-05-07T14:42:00;23.10;98.70
909;DHT22;441;51.192;6.788;2023-05-07T14:44:26;23.00;99.20
909;DHT22;441;51.192;6.788;2023-05-07T14:46:53;22.90;99.90
909;DHT22;441;51.192;6.788;2023-05-07T14:49:20;22.80;99.90
909;DHT22;441;51.192;6.788;2023-05-07T14:51:49;22.80;99.90
909;DHT22;441;51.192;6.788;2023-05-07T14:54:16;22.90;99.90
909;DHT22;441;51.192;6.788;2023-05-07T14:56:43;22.80;99.90
909;DHT22;441;51.192;6.788;2023-05-07T14:59:09;22.80;99.90
909;DHT22;441;51.192;6.788;2023-05-07T15:01:37;22.80;99.90
909;DHT22;441;51.192;6.788;2023-05-07T15:04:06;22.80;99.90
909;DHT22;441;51.192;6.788;2023-05-07T15:06:32;22.80;99.90
909;DHT22;441;51.192;6.788;2023-05-07T15:09:01;22.80;99.90
909;DHT22;441;51.192;6.788;2023-05-07T15:11:28;22.80;99.90
909;DHT22;441;51.192;6.788;2023-05-07T15:13:55;22.80;99.90
909;DHT22;441;51.192;6.788;2023-05-07T15:16:22;22.90;99.90
909;DHT22;441;51.192;6.788;2023-05-07T15:18:49;22.80;99.90
909;DHT22;441;51.192;6.788;2023-05-07T15:21:16;22.80;99.90
909;DHT22;441;51.192;6.788;2023-05-07T15:23:43;22.90;99.90
909;DHT22;441;51.192;6.788;2023-05-07T15:26:12;22.90;99.90
909;DHT22;441;51.192;6.788;2023-05-07T15:28:39;22.90;99.90
909;DHT22;441;51.192;6.788;2023-05-07T15:31:05;22.90;99.90
909;DHT22;441;51.192;6.788;2023-05-07T15:33:32;22.90;99.90
909;DHT22;441;51.192;6.788;2023-05-07T15:35:59;23.00;99.90
909;DHT22;441;51.192;6.788;2023-05-07T15:38:28;23.00;99.90
909;DHT22;441;51.192;6.788;2023-05-07T15:40:55;23.00;99.90
909;DHT22;441;51.192;6.788;2023-05-07T15:43:23;23.00;99.90
909;DHT22;441;51.192;6.788;2023-05-07T15:45:51;23.20;99.90
909;DHT22;441;51.192;6.788;2023-05-07T15:48:18;23.20;99.90
909;DHT22;441;51.192;6.788;2023-05-07T15:50:45;23.20;99.90
909;DHT22;441;51.192;6.788;2023-05-07T15:53:12;23.20;99.90
909;DHT22;441;51.192;6.788;2023-05-07T15:55:40;23.20;99.90
909;DHT22;441;51.192;6.788;2023-05-07T15:58:08;23.30;99.90
909;DHT22;441;51.192;6.788;2023-05-07T16:00:37;23.30;99.90
909;DHT22;441;51.192;6.788;2023-05-07T16:03:05;23.30;99.90
909;DHT22;441;51.192;6.788;2023-05-07T16:05:33;23.20;99.90
909;DHT22;441;51.192;6.788;2023-05-07T16:08:00;23.30;99.90
909;DHT22;441;51.192;6.788;2023-05-07T16:10:26;23.30;99.90
909;DHT22;441;51.192;6.788;2023-05-07T16:12:53;23.30;99.90
909;DHT22;441;51.192;6.788;2023-05-07T16:15:20;23.40;99.90
909;DHT22;441;51.192;6.788;2023-05-07T16:17:49;23.40;99.90
909;DHT22;441;51.192;6.788;2023-05-07T16:20:16;23.40;99.90
909;DHT22;441;51.192;6.788;2023-05-07T16:22:46;23.40;99.90
909;DHT22;441;51.192;6.788;2023-05-07T16:25:13;23.40;99.90
909;DHT22;441;51.192;6.788;2023-05-07T16:27:43;23.30;99.90
909;DHT22;441;51.192;6.788;2023-05-07T16:30:21;23.20;99.90
909;DHT22;441;51.192;6.788;2023-05-07T16:32:53;23.00;99.90
909;DHT22;441;51.192;6.788;2023-05-07T16:35:20;23.00;99.90
909;DHT22;441;51.192;6.788;2023-05-07T16:37:47;23.00;99.90
909;DHT22;441;51.192;6.788;2023-05-07T16:40:37;23.10;99.90
909;DHT22;441;51.192;6.788;2023-05-07T16:43:10;23.00;99.90
909;DHT22;441;51.192;6.788;2023-05-07T16:45:42;22.90;99.90
909;DHT22;441;51.192;6.788;2023-05-07T16:48:12;22.90;99.90
909;DHT22;441;51.192;6.788;2023-05-07T16:50:53;22.80;99.90
909;DHT22;441;51.192;6.788;2023-05-07T16:53:21;22.80;99.90